Capitol Logistics 403


KSEA
Seattle-Tacoma International Airport
Seattle, Washington, US
KLAX
Los Angeles International Airport
Los Angeles, California, US

Route Details

Aircraft Information
Primary: Boeing 747-400BCF
Backup: Boeing 777-200LRF
Route Data
Distance: 831nm
Sched. Duration: 2h 06m
Avg. Duration: 1h 98m (-9m)
Times Flown: 12
Recm'd Route: SUMMA1 SUMMA JINMO Q7 JAGWA BURGL IRNMN2
Planned Altitude: 39,000ft
Origin Wx: KSEA 202153Z 18005KT 10SM SCT034 SCT250 14/06 A3015 RMK AO2 SLP215 T01440061
Dest. Wx: KLAX 202153Z 26010KT 5SM HZ CLR 22/16 A2981 RMK AO2 SLP094 T02220156
Notes:

Financial History
Total Freight: 1,652,808lbs
Average Load: 137,734lbs/flt
Fuel Used: 476,617lbs
Avg. Fuel Used: 39,718lbs/flt
Fuel Expense: $533,811
Avg. Fuel Expense: $44,484
Avg. Fuel Cost: $1.12/lbs
Total Gross Income: $2,170,961
Pilot Pay: $2,568
Total Expenses: $235,088
Total Revenue: $1,395,643
Average Revenue: $180,913.45